createdAt,value
2018-10-05T00:00:43.509Z,16.30
2018-10-05T00:04:47.651Z,16.87
2018-10-05T00:08:51.738Z,16.63
2018-10-05T00:12:55.931Z,16.20
2018-10-05T00:17:00.083Z,14.73
2018-10-05T00:21:04.155Z,16.33
2018-10-05T00:25:08.297Z,15.70
2018-10-05T00:29:12.992Z,16.33
2018-10-05T00:33:17.211Z,16.23
2018-10-05T00:37:21.317Z,15.20
2018-10-05T00:41:25.703Z,15.43
2018-10-05T00:45:29.899Z,16.27
2018-10-05T00:49:34.059Z,15.63
2018-10-05T00:53:38.128Z,16.57
2018-10-05T00:57:43.342Z,16.37
2018-10-05T01:01:47.893Z,16.67
2018-10-05T01:05:51.915Z,17.70
2018-10-05T01:09:55.976Z,17.30
2018-10-05T01:14:00.180Z,16.80
2018-10-05T01:18:04.335Z,16.57
2018-10-05T01:22:08.664Z,16.20
2018-10-05T01:26:12.947Z,17.50
2018-10-05T01:30:17.635Z,16.60
2018-10-05T01:34:21.698Z,16.57
2018-10-05T01:38:26.012Z,16.80
2018-10-05T01:42:30.163Z,16.27
2018-10-05T01:46:34.460Z,16.33
2018-10-05T01:50:38.510Z,16.27
2018-10-05T01:54:43.775Z,16.97
2018-10-05T01:58:47.977Z,17.27
2018-10-05T02:02:52.279Z,16.33
2018-10-05T02:06:56.484Z,16.20
2018-10-05T02:11:00.622Z,15.93
2018-10-05T02:15:05.143Z,16.03
2018-10-05T02:19:09.268Z,16.00
2018-10-05T02:23:14.528Z,16.30
2018-10-05T02:27:18.992Z,16.50
2018-10-05T02:31:23.093Z,15.93
2018-10-05T02:35:27.488Z,16.90
2018-10-05T02:39:32.296Z,16.30
2018-10-05T02:43:36.379Z,16.30
2018-10-05T02:47:40.796Z,16.07
2018-10-05T02:51:45.199Z,16.63
2018-10-05T02:55:49.515Z,16.07
2018-10-05T02:59:53.671Z,15.40
2018-10-05T03:03:57.756Z,15.50
2018-10-05T03:08:02.211Z,15.10
2018-10-05T03:12:06.459Z,15.90
2018-10-05T03:16:12.707Z,15.37
2018-10-05T03:20:17.103Z,14.97
2018-10-05T03:24:21.443Z,16.07
2018-10-05T03:28:25.586Z,15.47
2018-10-05T03:32:29.922Z,15.63
2018-10-05T03:36:34.213Z,16.43
2018-10-05T03:40:38.383Z,16.63
2018-10-05T03:44:44.683Z,16.03
2018-10-05T03:48:48.921Z,16.40
2018-10-05T03:52:59.065Z,15.90
2018-10-05T03:57:05.416Z,17.70
2018-10-05T04:01:09.888Z,15.77
2018-10-05T04:05:14.564Z,16.77
2018-10-05T04:09:19.798Z,16.93
2018-10-05T04:13:28.171Z,16.90
2018-10-05T04:17:32.552Z,17.87
2018-10-05T04:21:36.682Z,17.40
2018-10-05T04:25:40.833Z,17.23
2018-10-05T04:29:45.175Z,19.07
2018-10-05T04:33:54.719Z,17.70
2018-10-05T04:37:59.092Z,17.67
2018-10-05T04:42:03.251Z,17.50
2018-10-05T04:46:07.600Z,18.80
2018-10-05T04:50:11.989Z,17.40
2018-10-05T04:54:16.351Z,17.63
2018-10-05T04:58:20.657Z,22.00
2018-10-05T05:02:25.090Z,27.10
2018-10-05T05:06:29.823Z,18.47
2018-10-05T05:10:37.065Z,18.17
2018-10-05T05:14:43.213Z,18.87
2018-10-05T05:18:47.420Z,18.77
2018-10-05T05:22:53.174Z,18.30
2018-10-05T05:26:57.854Z,24.90
2018-10-05T05:31:02.143Z,18.90
2018-10-05T05:35:06.432Z,20.40
2018-10-05T05:39:11.644Z,22.73
2018-10-05T05:43:16.002Z,20.77
2018-10-05T05:47:20.937Z,20.63
2018-10-05T05:51:25.980Z,19.00
2018-10-05T05:55:30.083Z,19.10
2018-10-05T05:59:34.327Z,20.80
2018-10-05T06:03:39.576Z,20.03
2018-10-05T06:07:43.806Z,23.80
2018-10-05T06:11:48.174Z,19.17
2018-10-05T06:15:52.425Z,22.37
2018-10-05T06:19:56.594Z,26.63
2018-10-05T06:24:00.863Z,19.77
2018-10-05T06:28:04.956Z,18.67
2018-10-05T06:32:09.159Z,18.13
2018-10-05T06:36:13.384Z,17.53
2018-10-05T06:40:18.180Z,17.47
2018-10-05T06:44:22.864Z,16.27
2018-10-05T06:48:28.286Z,17.00
2018-10-05T06:52:32.426Z,14.53
2018-10-05T07:01:44.032Z,15.50
2018-10-05T07:05:50.154Z,16.00
2018-10-05T07:09:57.200Z,15.60
2018-10-05T07:14:01.563Z,16.10
2018-10-05T07:18:05.973Z,16.83
2018-10-05T07:22:10.314Z,14.70
2018-10-05T07:26:17.339Z,14.97
2018-10-05T07:30:22.069Z,16.57
2018-10-05T07:34:26.341Z,14.97
2018-10-05T07:38:30.729Z,13.17
2018-10-05T07:42:34.928Z,12.50
2018-10-05T07:46:39.172Z,13.33
2018-10-05T07:50:43.612Z,12.23
2018-10-05T07:54:47.701Z,11.20
2018-10-05T07:58:53.207Z,11.10
2018-10-05T08:02:57.527Z,11.30
2018-10-05T08:07:02.640Z,9.53
2018-10-05T08:11:07.400Z,11.10
2018-10-05T08:15:12.104Z,12.23
2018-10-05T08:19:16.454Z,12.63
2018-10-05T08:23:21.981Z,11.50
2018-10-05T08:27:26.777Z,10.87
2018-10-05T08:31:30.919Z,11.27
2018-10-05T08:35:47.036Z,10.40
2018-10-05T08:39:53.143Z,10.07
2018-10-05T08:43:57.507Z,9.77
2018-10-05T08:48:11.676Z,9.53
2018-10-05T08:52:15.895Z,9.00
2018-10-05T08:56:20.257Z,8.33
2018-10-05T09:00:24.740Z,7.67
2018-10-05T09:04:29.432Z,8.57
2018-10-05T09:08:33.851Z,7.90
2018-10-05T09:12:40.844Z,8.13
2018-10-05T09:16:44.997Z,8.13
2018-10-05T09:20:50.108Z,8.10
2018-10-05T09:24:55.131Z,8.50
2018-10-05T09:29:00.011Z,8.00
2018-10-05T09:33:04.169Z,7.83
2018-10-05T09:37:08.449Z,7.40
2018-10-05T09:41:12.727Z,7.53
2018-10-05T09:45:17.025Z,7.40
2018-10-05T09:49:23.583Z,8.20
2018-10-05T09:53:28.166Z,8.13
2018-10-05T09:57:35.552Z,8.17
2018-10-05T10:01:45.195Z,7.63
2018-10-05T10:05:50.630Z,8.10
2018-10-05T10:09:55.121Z,7.30
2018-10-05T10:14:01.141Z,7.47
2018-10-05T10:18:05.680Z,7.77
2018-10-05T10:22:09.808Z,7.53
2018-10-05T10:26:13.997Z,6.90
2018-10-05T10:30:18.090Z,8.33
2018-10-05T10:34:22.449Z,9.07
2018-10-05T10:38:27.104Z,7.53
2018-10-05T10:42:31.327Z,7.73
2018-10-05T10:46:35.501Z,8.23
2018-10-05T10:50:40.333Z,8.50
2018-10-05T10:54:44.642Z,9.03
2018-10-05T10:58:49.745Z,8.13
2018-10-05T11:02:53.990Z,8.30
2018-10-05T11:06:58.395Z,8.33
2018-10-05T11:11:02.755Z,8.43
2018-10-05T11:15:07.064Z,9.07
2018-10-05T11:19:11.267Z,8.83
2018-10-05T11:23:15.838Z,9.43
2018-10-05T11:27:21.090Z,8.73
2018-10-05T11:31:25.624Z,9.07
2018-10-05T11:35:29.764Z,8.97
2018-10-05T11:39:34.013Z,9.20
2018-10-05T11:43:38.128Z,8.90
2018-10-05T11:47:42.613Z,9.77
2018-10-05T11:51:46.761Z,9.07
2018-10-05T11:55:51.425Z,9.97
2018-10-05T11:59:55.896Z,10.37
2018-10-05T12:04:08.985Z,10.37
2018-10-05T12:08:13.144Z,9.87
2018-10-05T12:12:17.303Z,9.43
2018-10-05T12:16:21.488Z,8.43
2018-10-05T12:20:25.742Z,7.97
2018-10-05T12:24:31.114Z,7.90
2018-10-05T12:28:35.353Z,6.90
2018-10-05T12:32:39.504Z,6.17
2018-10-05T12:36:43.655Z,7.53
2018-10-05T12:40:47.840Z,7.30
2018-10-05T12:44:52.613Z,7.00
2018-10-05T12:48:57.124Z,6.60
2018-10-05T12:53:01.229Z,6.90
2018-10-05T12:57:06.803Z,7.90
2018-10-05T13:01:12.720Z,6.97
2018-10-05T13:05:17.040Z,7.07
2018-10-05T13:09:22.347Z,6.60
2018-10-05T13:13:28.351Z,6.97
2018-10-05T13:17:32.828Z,6.90
2018-10-05T13:21:37.032Z,6.37
2018-10-05T13:25:41.363Z,6.67
2018-10-05T13:29:46.580Z,6.83
2018-10-05T13:33:51.779Z,7.10
2018-10-05T13:37:56.641Z,6.53
2018-10-05T13:42:00.937Z,7.00
2018-10-05T13:46:05.273Z,6.50
2018-10-05T13:50:11.224Z,7.87
2018-10-05T13:54:15.648Z,7.03
2018-10-05T13:58:20.967Z,7.40
2018-10-05T14:02:25.295Z,7.07
2018-10-05T14:06:29.492Z,7.10
2018-10-05T14:10:40.094Z,7.63
2018-10-05T14:14:44.373Z,7.67
2018-10-05T14:18:51.367Z,7.00
2018-10-05T14:22:56.152Z,6.47
2018-10-05T14:27:00.265Z,7.33
2018-10-05T14:31:04.560Z,7.40
2018-10-05T14:35:08.759Z,6.57
2018-10-05T14:39:13.547Z,6.57
2018-10-05T14:43:17.957Z,8.00
2018-10-05T14:47:30.102Z,6.97
2018-10-05T14:51:36.580Z,6.60
2018-10-05T14:55:40.768Z,6.60
2018-10-05T14:59:45.269Z,6.53
2018-10-05T15:03:51.860Z,6.97
2018-10-05T15:07:56.523Z,6.70
2018-10-05T15:12:00.784Z,6.83
2018-10-05T15:16:05.229Z,6.97
2018-10-05T15:20:09.473Z,6.23
2018-10-05T15:24:13.784Z,6.23
2018-10-05T15:28:18.012Z,6.57
2018-10-05T15:32:22.789Z,7.47
2018-10-05T15:36:26.960Z,7.83
2018-10-05T15:40:31.079Z,8.70
2018-10-05T15:44:35.201Z,8.60
2018-10-05T15:48:39.412Z,9.17
2018-10-05T15:52:43.664Z,9.17
2018-10-05T15:56:48.081Z,9.27
2018-10-05T16:00:53.487Z,10.10
2018-10-05T16:04:57.667Z,8.80
2018-10-05T16:09:01.894Z,9.30
2018-10-05T16:13:06.657Z,8.13
2018-10-05T16:17:10.938Z,8.20
2018-10-05T16:21:15.213Z,9.37
2018-10-05T16:25:19.489Z,7.17
2018-10-05T16:29:23.850Z,5.73
2018-10-05T16:33:28.359Z,4.90
2018-10-05T16:37:32.759Z,5.60
2018-10-05T16:41:36.908Z,5.40
2018-10-05T16:45:41.283Z,4.80
2018-10-05T16:49:45.458Z,5.77
2018-10-05T16:53:49.851Z,5.60
2018-10-05T16:57:54.357Z,5.20
2018-10-05T17:01:58.569Z,6.50
2018-10-05T17:06:02.701Z,6.30
2018-10-05T17:10:07.166Z,6.33
2018-10-05T17:14:11.296Z,6.23
2018-10-05T17:18:15.520Z,5.93
2018-10-05T17:22:20.443Z,5.63
2018-10-05T17:26:24.697Z,5.73
2018-10-05T17:30:28.892Z,5.37
2018-10-05T17:34:33.171Z,6.97
2018-10-05T17:38:37.531Z,7.57
2018-10-05T17:42:41.943Z,6.70
2018-10-05T17:46:47.623Z,6.73
2018-10-05T17:50:54.726Z,6.67
2018-10-05T17:54:59.480Z,7.20
2018-10-05T17:59:03.775Z,7.90
2018-10-05T18:03:08.190Z,7.03
2018-10-05T18:07:12.403Z,7.07
2018-10-05T18:11:16.757Z,7.33
2018-10-05T18:15:22.107Z,8.17
2018-10-05T18:19:26.244Z,9.03
2018-10-05T18:23:30.509Z,8.17
2018-10-05T18:27:35.046Z,7.10
2018-10-05T18:31:39.295Z,7.90
2018-10-05T18:35:43.642Z,7.27
2018-10-05T18:39:47.893Z,7.63
2018-10-05T18:43:52.920Z,8.97
2018-10-05T18:47:58.572Z,8.90
2018-10-05T18:52:02.936Z,10.67
2018-10-05T18:56:18.682Z,9.77
2018-10-05T19:00:23.547Z,10.10
2018-10-05T19:04:27.804Z,9.80
2018-10-05T19:08:31.956Z,9.40
2018-10-05T19:12:36.244Z,9.33
2018-10-05T19:16:40.417Z,9.33
2018-10-05T19:20:44.656Z,9.97
2018-10-05T19:24:50.026Z,12.97
2018-10-05T19:28:55.302Z,16.67
2018-10-05T19:32:59.952Z,13.60
2018-10-05T19:37:04.335Z,12.50
2018-10-05T19:41:08.586Z,11.33
2018-10-05T19:45:12.868Z,13.47
2018-10-05T19:49:17.303Z,13.40
2018-10-05T19:53:21.805Z,12.37
2018-10-05T19:57:26.704Z,10.97
2018-10-05T20:01:30.974Z,11.77
2018-10-05T20:05:35.160Z,12.40
2018-10-05T20:09:39.491Z,12.00
2018-10-05T20:13:43.980Z,16.97
2018-10-05T20:17:48.387Z,12.60
2018-10-05T20:21:52.673Z,13.00
2018-10-05T20:25:57.084Z,14.33
2018-10-05T20:30:01.321Z,12.20
2018-10-05T20:34:05.593Z,13.57
2018-10-05T20:38:09.789Z,13.93
2018-10-05T20:42:13.927Z,13.27
2018-10-05T20:47:21.304Z,13.23
2018-10-05T20:51:25.571Z,13.90
2018-10-05T20:55:29.956Z,16.20
2018-10-05T20:59:34.213Z,15.97
2018-10-05T21:03:38.448Z,14.17
2018-10-05T21:07:42.573Z,14.43
2018-10-05T21:11:47.017Z,16.77
2018-10-05T21:15:52.535Z,14.27
2018-10-05T21:19:56.952Z,11.33
2018-10-05T21:24:01.173Z,13.37
2018-10-05T21:28:05.937Z,11.47
2018-10-05T21:32:10.232Z,12.73
2018-10-05T21:36:14.420Z,11.30
2018-10-05T21:40:19.900Z,10.43
2018-10-05T21:44:24.554Z,11.40
2018-10-05T21:48:28.854Z,10.07
2018-10-05T21:52:33.412Z,11.00
2018-10-05T21:56:37.566Z,9.87
2018-10-05T22:00:42.784Z,10.13
2018-10-05T22:04:46.942Z,9.93
2018-10-05T22:08:52.353Z,10.17
2018-10-05T22:12:56.974Z,10.03
2018-10-05T22:17:01.220Z,10.77
2018-10-05T22:21:05.614Z,9.73
2018-10-05T22:25:09.952Z,10.27
2018-10-05T22:29:14.100Z,10.50
2018-10-05T22:33:20.105Z,11.63
2018-10-05T22:37:24.382Z,11.90
2018-10-05T22:41:30.470Z,10.97
2018-10-05T22:45:34.822Z,11.37
2018-10-05T22:49:39.035Z,10.90
2018-10-05T22:53:43.379Z,10.70
2018-10-05T22:57:47.722Z,11.37
2018-10-05T23:01:52.082Z,11.50
2018-10-05T23:05:56.628Z,11.43
2018-10-05T23:10:00.825Z,10.83
2018-10-05T23:14:05.028Z,11.93
2018-10-05T23:18:09.316Z,11.83
2018-10-05T23:22:13.621Z,12.53
2018-10-05T23:26:17.823Z,12.43
2018-10-05T23:30:22.512Z,12.47
2018-10-05T23:34:26.981Z,12.07
2018-10-05T23:38:31.386Z,12.67
2018-10-05T23:42:35.719Z,12.47
2018-10-05T23:46:40.454Z,12.83
2018-10-05T23:50:44.677Z,12.43
2018-10-05T23:54:49.105Z,12.77
2018-10-05T23:58:53.346Z,12.07
